createdAt,value
2018-09-22T00:00:02.202Z,88.16
2018-09-22T00:02:30.508Z,87.96
2018-09-22T00:04:59.007Z,87.04
2018-09-22T00:07:27.460Z,87.06
2018-09-22T00:09:55.773Z,87.31
2018-09-22T00:12:24.261Z,86.65
2018-09-22T00:14:52.592Z,88.45
2018-09-22T00:17:20.904Z,88.00
2018-09-22T00:19:49.413Z,88.01
2018-09-22T00:22:18.041Z,87.98
2018-09-22T00:24:46.612Z,89.16
2018-09-22T00:27:14.991Z,89.38
2018-09-22T00:29:43.287Z,89.12
2018-09-22T00:32:11.725Z,88.77
2018-09-22T00:34:40.088Z,88.96
2018-09-22T00:37:08.402Z,89.37
2018-09-22T00:39:36.714Z,89.93
2018-09-22T00:42:05.235Z,90.62
2018-09-22T00:44:33.553Z,90.80
2018-09-22T00:47:01.857Z,90.89
2018-09-22T00:49:30.385Z,91.13
2018-09-22T00:51:58.721Z,90.96
2018-09-22T00:54:27.032Z,91.65
2018-09-22T00:56:55.369Z,91.88
2018-09-22T00:59:23.712Z,92.18
2018-09-22T01:01:52.017Z,91.91
2018-09-22T01:04:20.395Z,92.32
2018-09-22T01:06:48.732Z,91.81
2018-09-22T01:09:17.064Z,92.07
2018-09-22T01:11:45.568Z,92.37
2018-09-22T01:14:13.880Z,92.01
2018-09-22T01:16:42.180Z,92.80
2018-09-22T01:19:10.548Z,92.81
2018-09-22T01:21:38.904Z,93.10
2018-09-22T01:24:07.292Z,93.39
2018-09-22T01:26:35.839Z,93.30
2018-09-22T01:29:04.153Z,94.28
2018-09-22T01:31:32.465Z,94.02
2018-09-22T01:34:00.976Z,93.95
2018-09-22T01:36:29.276Z,93.97
2018-09-22T01:38:57.576Z,93.29
2018-09-22T01:41:25.896Z,93.38
2018-09-22T01:43:54.209Z,93.48
2018-09-22T01:46:22.517Z,93.59
2018-09-22T01:48:50.841Z,93.99
2018-09-22T01:51:19.145Z,93.62
2018-09-22T01:53:47.572Z,93.66
2018-09-22T01:56:15.905Z,94.23
2018-09-22T01:58:44.220Z,94.28
2018-09-22T02:01:12.519Z,94.08
2018-09-22T02:03:40.864Z,93.81
2018-09-22T02:06:09.168Z,93.92
2018-09-22T02:08:37.695Z,94.15
2018-09-22T02:11:06.395Z,94.39
2018-09-22T02:13:34.701Z,94.27
2018-09-22T02:16:03.017Z,94.04
2018-09-22T02:18:31.388Z,94.08
2018-09-22T02:20:59.701Z,93.25
2018-09-22T02:23:28.005Z,93.87
2018-09-22T02:25:56.429Z,93.54
2018-09-22T02:28:24.764Z,93.44
2018-09-22T02:30:53.093Z,92.94
2018-09-22T02:33:21.544Z,93.09
2018-09-22T02:35:49.881Z,92.78
2018-09-22T02:38:18.332Z,93.48
2018-09-22T02:40:46.668Z,93.80
2018-09-22T02:43:14.972Z,94.29
2018-09-22T02:45:43.290Z,94.13
2018-09-22T02:48:11.812Z,94.59
2018-09-22T02:50:40.136Z,94.29
2018-09-22T02:53:08.460Z,94.62
2018-09-22T02:55:36.961Z,94.32
2018-09-22T02:58:05.288Z,94.48
2018-09-22T03:00:33.600Z,94.80
2018-09-22T03:03:02.112Z,94.66
2018-09-22T03:05:30.412Z,93.94
2018-09-22T03:07:58.758Z,93.43
2018-09-22T03:10:27.100Z,93.59
2018-09-22T03:12:55.425Z,94.41
2018-09-22T03:15:23.792Z,94.25
2018-09-22T03:17:52.371Z,94.11
2018-09-22T03:20:20.697Z,95.64
2018-09-22T03:22:49.009Z,94.95
2018-09-22T03:25:17.493Z,94.98
2018-09-22T03:27:45.857Z,95.59
2018-09-22T03:30:14.253Z,94.82
2018-09-22T03:32:42.542Z,95.75
2018-09-22T03:35:10.869Z,95.76
2018-09-22T03:37:39.281Z,95.82
2018-09-22T03:40:07.694Z,96.04
2018-09-22T03:42:36.018Z,95.45
2018-09-22T03:45:04.400Z,95.98
2018-09-22T03:47:33.796Z,96.52
2018-09-22T03:50:02.120Z,96.49
2018-09-22T03:52:30.433Z,95.64
2018-09-22T03:54:58.797Z,96.21
2018-09-22T03:57:27.121Z,95.73
2018-09-22T03:59:55.432Z,95.75
2018-09-22T04:02:23.792Z,94.72
2018-09-22T04:04:52.091Z,95.00
2018-09-22T04:07:20.417Z,95.12
2018-09-22T04:09:48.764Z,95.85
2018-09-22T04:12:17.092Z,95.59
2018-09-22T04:14:45.400Z,96.09
2018-09-22T04:17:13.758Z,95.95
2018-09-22T04:19:42.072Z,96.23
2018-09-22T04:22:10.382Z,96.88
2018-09-22T04:24:38.729Z,96.68
2018-09-22T04:27:07.092Z,96.48
2018-09-22T04:29:35.420Z,96.43
2018-09-22T04:32:03.777Z,95.98
2018-09-22T04:34:32.101Z,96.19
2018-09-22T04:37:00.425Z,96.19
2018-09-22T04:39:28.945Z,96.65
2018-09-22T04:41:57.293Z,96.65
2018-09-22T04:44:25.624Z,96.59
2018-09-22T04:46:54.056Z,96.68
2018-09-22T04:49:22.380Z,96.38
2018-09-22T04:51:50.692Z,96.85
2018-09-22T04:54:19.045Z,96.37
2018-09-22T04:56:47.404Z,96.51
2018-09-22T04:59:15.716Z,96.54
2018-09-22T05:01:44.056Z,95.85
2018-09-22T05:04:12.371Z,95.47
2018-09-22T05:06:40.691Z,95.10
2018-09-22T05:09:11.189Z,95.16
2018-09-22T05:11:39.533Z,95.06
2018-09-22T05:14:08.012Z,95.27
2018-09-22T05:16:36.568Z,95.25
2018-09-22T05:19:05.148Z,94.31
2018-09-22T05:21:33.468Z,95.27
2018-09-22T05:24:01.830Z,95.29
2018-09-22T05:26:30.140Z,95.65
2018-09-22T05:28:58.497Z,95.38
2018-09-22T05:31:26.833Z,94.48
2018-09-22T05:33:55.148Z,94.69
2018-09-22T05:36:23.466Z,95.84
2018-09-22T05:38:51.809Z,95.86
2018-09-22T05:41:20.120Z,96.07
2018-09-22T05:43:48.441Z,96.46
2018-09-22T05:46:16.792Z,96.76
2018-09-22T05:48:45.098Z,97.07
2018-09-22T05:51:13.416Z,97.15
2018-09-22T05:53:41.936Z,97.71
2018-09-22T05:56:10.261Z,97.12
2018-09-22T05:58:38.625Z,97.18
2018-09-22T06:01:07.097Z,97.04
2018-09-22T06:03:35.486Z,95.42
2018-09-22T06:06:03.757Z,94.70
2018-09-22T06:08:32.210Z,94.01
2018-09-22T06:11:00.548Z,93.70
2018-09-22T06:13:28.889Z,94.02
2018-09-22T06:15:57.265Z,93.44
2018-09-22T06:18:25.836Z,93.71
2018-09-22T06:20:54.172Z,93.99
2018-09-22T06:23:22.635Z,93.58
2018-09-22T06:25:50.916Z,92.39
2018-09-22T06:28:19.293Z,92.62
2018-09-22T06:30:47.633Z,92.28
2018-09-22T06:33:15.948Z,91.72
2018-09-22T06:35:44.264Z,90.21
2018-09-22T06:38:12.601Z,90.08
2018-09-22T06:40:40.926Z,89.38
2018-09-22T06:43:09.441Z,88.77
2018-09-22T06:45:37.823Z,87.23
2018-09-22T06:48:06.132Z,87.33
2018-09-22T06:50:34.451Z,85.95
2018-09-22T06:53:03.226Z,86.75
2018-09-22T06:55:31.587Z,87.63
2018-09-22T06:57:59.913Z,87.23
2018-09-22T07:00:28.249Z,85.73
2018-09-22T07:02:56.576Z,85.75
2018-09-22T07:05:24.892Z,86.50
2018-09-22T07:07:53.426Z,87.12
2018-09-22T07:10:21.796Z,87.51
2018-09-22T07:12:50.109Z,86.92
2018-09-22T07:15:18.492Z,87.12
2018-09-22T07:17:46.849Z,86.50
2018-09-22T07:20:15.417Z,85.47
2018-09-22T07:22:49.177Z,85.99
2018-09-22T07:25:17.552Z,86.17
2018-09-22T07:27:45.853Z,86.37
2018-09-22T07:30:14.424Z,86.04
2018-09-22T07:32:42.800Z,83.05
2018-09-22T07:35:11.129Z,81.12
2018-09-22T07:37:39.512Z,79.87
2018-09-22T07:40:07.860Z,78.53
2018-09-22T07:42:36.240Z,78.58
2018-09-22T07:45:04.589Z,79.38
2018-09-22T07:47:32.917Z,79.14
2018-09-22T07:50:01.242Z,81.69
2018-09-22T07:52:29.605Z,81.34
2018-09-22T07:54:58.017Z,80.99
2018-09-22T07:57:27.349Z,80.17
2018-09-22T07:59:55.706Z,78.68
2018-09-22T08:02:24.045Z,78.28
2018-09-22T08:04:52.413Z,78.96
2018-09-22T08:07:21.033Z,77.40
2018-09-22T08:09:49.541Z,77.03
2018-09-22T08:12:17.876Z,75.69
2018-09-22T08:14:46.241Z,77.10
2018-09-22T08:17:14.573Z,78.27
2018-09-22T08:19:42.913Z,79.49
2018-09-22T08:22:11.337Z,78.72
2018-09-22T08:24:39.702Z,78.97
2018-09-22T08:27:08.020Z,77.87
2018-09-22T08:29:36.424Z,76.50
2018-09-22T08:32:04.769Z,76.51
2018-09-22T08:34:33.092Z,73.73
2018-09-22T08:37:01.627Z,73.26
2018-09-22T08:39:29.876Z,76.42
2018-09-22T08:41:58.200Z,82.10
2018-09-22T08:44:26.551Z,85.91
2018-09-22T08:46:54.996Z,87.48
2018-09-22T08:49:23.368Z,88.33
2018-09-22T08:51:51.865Z,89.71
2018-09-22T08:54:20.180Z,90.35
2018-09-22T08:56:48.728Z,89.06
2018-09-22T08:59:17.183Z,88.01
2018-09-22T09:01:45.521Z,85.99
2018-09-22T09:04:13.836Z,84.95
2018-09-22T09:06:42.224Z,85.24
2018-09-22T09:09:11.069Z,83.90
2018-09-22T09:11:39.509Z,83.31
2018-09-22T09:14:07.934Z,83.21
2018-09-22T09:16:36.260Z,81.86
2018-09-22T09:19:04.628Z,78.59
2018-09-22T09:21:32.984Z,74.14
2018-09-22T09:24:02.362Z,73.22
2018-09-22T09:26:30.689Z,74.08
2018-09-22T09:28:59.049Z,72.84
2018-09-22T09:31:27.409Z,75.41
2018-09-22T09:33:55.746Z,79.61
2018-09-22T09:36:24.140Z,82.75
2018-09-22T09:38:58.500Z,82.94
2018-09-22T09:41:26.984Z,86.35
2018-09-22T09:43:55.363Z,87.51
2018-09-22T09:46:24.335Z,89.15
2018-09-22T09:48:52.704Z,90.09
2018-09-22T09:51:21.115Z,89.78
2018-09-22T09:53:49.554Z,86.43
2018-09-22T09:56:18.324Z,84.98
2018-09-22T09:58:46.669Z,82.04
2018-09-22T10:01:15.041Z,81.34
2018-09-22T10:03:43.544Z,80.02
2018-09-22T10:06:11.942Z,79.74
2018-09-22T10:08:40.315Z,81.29
2018-09-22T10:11:08.681Z,82.87
2018-09-22T10:13:36.993Z,85.94
2018-09-22T10:16:05.315Z,88.09
2018-09-22T10:18:33.667Z,87.63
2018-09-22T10:21:01.971Z,86.51
2018-09-22T10:23:30.736Z,86.73
2018-09-22T10:25:59.136Z,86.84
2018-09-22T10:28:27.587Z,86.55
2018-09-22T10:30:55.853Z,84.89
2018-09-22T10:33:24.200Z,85.29
2018-09-22T10:35:52.511Z,84.90
2018-09-22T10:38:20.832Z,82.14
2018-09-22T10:40:50.014Z,80.98
2018-09-22T10:43:18.370Z,80.49
2018-09-22T10:45:46.713Z,80.28
2018-09-22T10:48:15.145Z,80.74
2018-09-22T10:50:43.501Z,78.87
2018-09-22T10:53:11.856Z,78.83
2018-09-22T10:55:40.181Z,79.43
2018-09-22T10:58:08.524Z,78.64
2018-09-22T11:00:43.224Z,77.54
2018-09-22T11:03:11.638Z,78.11
2018-09-22T11:05:39.935Z,76.79
2018-09-22T11:08:08.250Z,75.93
2018-09-22T11:10:36.584Z,74.46
2018-09-22T11:13:04.920Z,74.32
2018-09-22T11:15:33.256Z,73.80
2018-09-22T11:18:03.620Z,74.70
2018-09-22T11:20:31.946Z,74.99
2018-09-22T11:23:00.280Z,75.10
2018-09-22T11:25:28.610Z,74.83
2018-09-22T11:27:56.989Z,74.80
2018-09-22T11:30:25.304Z,74.00
2018-09-22T11:32:53.624Z,71.48
2018-09-22T11:35:23.068Z,72.06
2018-09-22T11:37:51.400Z,71.94
2018-09-22T11:40:19.791Z,71.68
2018-09-22T11:42:48.250Z,72.17
2018-09-22T11:45:16.621Z,70.92
2018-09-22T11:47:44.968Z,70.30
2018-09-22T11:50:13.308Z,69.61
2018-09-22T11:52:41.624Z,69.76
2018-09-22T11:55:09.996Z,67.66
2018-09-22T11:57:38.321Z,67.75
2018-09-22T12:00:07.188Z,67.26
2018-09-22T12:02:35.558Z,67.25
2018-09-22T12:05:03.968Z,67.67
2018-09-22T12:07:32.312Z,68.77
2018-09-22T12:10:00.669Z,68.19
2018-09-22T12:12:29.017Z,67.08
2018-09-22T12:14:57.373Z,66.01
2018-09-22T12:17:25.698Z,65.21
2018-09-22T12:19:54.037Z,63.65
2018-09-22T12:22:22.356Z,63.30
2018-09-22T12:24:50.710Z,61.71
2018-09-22T12:27:19.060Z,61.04
2018-09-22T12:29:47.420Z,59.56
2018-09-22T12:32:15.762Z,58.33
2018-09-22T12:34:44.273Z,58.20
2018-09-22T12:37:12.603Z,58.41
2018-09-22T12:39:40.969Z,59.90
2018-09-22T12:42:09.310Z,67.07
2018-09-22T12:44:37.638Z,73.33
2018-09-22T12:47:06.029Z,74.63
2018-09-22T12:49:34.448Z,74.69
2018-09-22T12:52:02.780Z,72.10
2018-09-22T12:54:31.187Z,71.20
2018-09-22T12:56:59.544Z,69.80
2018-09-22T12:59:27.890Z,70.91
2018-09-22T13:01:56.212Z,69.11
2018-09-22T13:04:24.536Z,69.83
2018-09-22T13:06:52.844Z,69.33
2018-09-22T13:09:21.157Z,68.72
2018-09-22T13:11:49.411Z,66.92
2018-09-22T13:14:17.697Z,65.61
2018-09-22T13:16:45.953Z,64.14
2018-09-22T13:19:14.288Z,64.01
2018-09-22T13:21:42.621Z,63.41
2018-09-22T13:24:11.053Z,65.74
2018-09-22T13:26:39.403Z,66.14
2018-09-22T13:29:07.740Z,65.32
2018-09-22T13:31:36.084Z,65.86
2018-09-22T13:34:04.616Z,69.14
2018-09-22T13:36:33.008Z,72.94
2018-09-22T13:39:01.327Z,72.86
2018-09-22T13:41:29.673Z,72.68
2018-09-22T13:43:58.008Z,72.75
2018-09-22T13:46:26.344Z,73.53
2018-09-22T13:48:54.665Z,73.82
2018-09-22T13:51:23.006Z,72.75
2018-09-22T13:53:51.334Z,74.40
2018-09-22T13:56:19.721Z,74.40
2018-09-22T13:58:48.084Z,76.07
2018-09-22T14:01:16.577Z,77.45
2018-09-22T14:03:45.000Z,77.37
2018-09-22T14:06:13.301Z,76.66
2018-09-22T14:08:41.644Z,76.63
2018-09-22T14:11:09.985Z,77.54
2018-09-22T14:13:38.304Z,77.51
2018-09-22T14:16:06.655Z,76.61
2018-09-22T14:18:35.171Z,76.85
2018-09-22T14:21:03.498Z,73.86
2018-09-22T14:23:31.828Z,74.07
2018-09-22T14:26:00.172Z,71.98
2018-09-22T14:28:29.536Z,72.12
2018-09-22T14:30:57.965Z,71.62
2018-09-22T14:33:26.301Z,71.43
2018-09-22T14:35:54.646Z,71.21
2018-09-22T14:38:22.985Z,70.90
2018-09-22T14:40:51.349Z,70.51
2018-09-22T14:43:19.725Z,71.36
2018-09-22T14:45:48.052Z,70.57
2018-09-22T14:48:16.408Z,69.45
2018-09-22T14:50:44.750Z,67.36
2018-09-22T14:53:13.064Z,66.89
2018-09-22T14:55:41.412Z,63.95
2018-09-22T14:58:09.749Z,59.03
2018-09-22T15:00:38.108Z,58.40
2018-09-22T15:03:06.829Z,54.75
2018-09-22T15:05:35.185Z,55.54
2018-09-22T15:08:03.535Z,56.22
2018-09-22T15:10:31.877Z,53.30
2018-09-22T15:13:00.205Z,48.47
2018-09-22T15:15:28.556Z,43.94
2018-09-22T15:17:56.913Z,41.96
2018-09-22T15:20:25.265Z,41.69
2018-09-22T15:22:53.621Z,39.31
2018-09-22T15:25:21.968Z,39.34
2018-09-22T15:27:50.275Z,37.23
2018-09-22T15:30:18.596Z,39.62
2018-09-22T15:32:46.945Z,46.47
2018-09-22T15:35:15.292Z,52.95
2018-09-22T15:37:43.622Z,57.12
2018-09-22T15:40:11.964Z,59.46
2018-09-22T15:42:40.365Z,61.21
2018-09-22T15:45:09.296Z,62.81
2018-09-22T15:47:37.652Z,62.44
2018-09-22T15:50:06.031Z,64.09
2018-09-22T15:52:34.520Z,63.56
2018-09-22T15:55:02.858Z,56.99
2018-09-22T15:57:31.185Z,48.22
2018-09-22T15:59:59.608Z,45.87
2018-09-22T16:02:27.944Z,45.64
2018-09-22T16:04:56.286Z,48.37
2018-09-22T16:07:24.685Z,51.47
2018-09-22T16:09:54.524Z,53.63
2018-09-22T16:12:22.830Z,57.73
2018-09-22T16:14:51.148Z,58.05
2018-09-22T16:17:19.453Z,58.42
2018-09-22T16:19:47.764Z,59.33
2018-09-22T16:22:16.090Z,60.21
2018-09-22T16:24:44.432Z,61.41
2018-09-22T16:27:12.758Z,60.85
2018-09-22T16:29:41.097Z,61.75
2018-09-22T16:32:09.594Z,61.88
2018-09-22T16:34:38.096Z,62.01
2018-09-22T16:37:06.574Z,62.23
2018-09-22T16:39:34.917Z,63.74
2018-09-22T16:42:03.232Z,62.06
2018-09-22T16:44:31.573Z,62.20
2018-09-22T16:46:59.906Z,62.09
2018-09-22T16:49:28.281Z,60.70
2018-09-22T16:51:56.592Z,60.68
2018-09-22T16:54:24.945Z,60.66
2018-09-22T16:56:53.272Z,60.52
2018-09-22T16:59:21.676Z,60.92
2018-09-22T17:01:50.021Z,61.13
2018-09-22T17:04:18.391Z,60.17
2018-09-22T17:06:46.732Z,61.00
2018-09-22T17:09:15.097Z,61.23
2018-09-22T17:11:43.438Z,61.87
2018-09-22T17:14:11.796Z,61.30
2018-09-22T17:16:40.142Z,62.22
2018-09-22T17:19:09.593Z,62.50
2018-09-22T17:21:37.935Z,61.89
2018-09-22T17:24:06.314Z,62.17
2018-09-22T17:26:34.653Z,62.28
2018-09-22T17:29:02.999Z,63.08
2018-09-22T17:31:31.343Z,63.22
2018-09-22T17:33:59.732Z,64.20
2018-09-22T17:36:28.083Z,64.46
2018-09-22T17:38:57.417Z,64.89
2018-09-22T17:41:25.807Z,64.73
2018-09-22T17:43:54.308Z,65.00
2018-09-22T17:46:22.723Z,65.37
2018-09-22T17:48:51.069Z,65.67
2018-09-22T17:51:19.426Z,66.13
2018-09-22T17:53:47.821Z,66.56
2018-09-22T17:56:16.123Z,66.74
2018-09-22T17:58:44.484Z,66.65
2018-09-22T18:01:12.847Z,66.17
2018-09-22T18:03:41.193Z,67.32
2018-09-22T18:06:09.639Z,67.19
2018-09-22T18:08:37.884Z,67.85
2018-09-22T18:11:06.232Z,67.30
2018-09-22T18:13:34.568Z,67.64
2018-09-22T18:16:02.880Z,67.66
2018-09-22T18:18:31.298Z,67.43
2018-09-22T18:20:59.640Z,67.85
2018-09-22T18:23:28.026Z,68.73
2018-09-22T18:25:56.376Z,68.27
2018-09-22T18:28:24.716Z,68.23
2018-09-22T18:30:53.068Z,68.48
2018-09-22T18:33:21.456Z,69.05
2018-09-22T18:35:49.785Z,68.78
2018-09-22T18:38:18.113Z,69.00
2018-09-22T18:40:46.720Z,69.41
2018-09-22T18:43:15.043Z,68.73
2018-09-22T18:45:44.405Z,68.54
2018-09-22T18:48:12.731Z,69.69
2018-09-22T18:50:41.252Z,70.13
2018-09-22T18:53:09.568Z,70.77
2018-09-22T18:55:37.896Z,71.68
2018-09-22T18:58:07.335Z,71.67
2018-09-22T19:00:35.697Z,71.51
2018-09-22T19:03:04.053Z,72.31
2018-09-22T19:05:32.405Z,73.18
2018-09-22T19:08:00.749Z,73.27
2018-09-22T19:10:29.097Z,73.44
2018-09-22T19:12:58.019Z,73.60
2018-09-22T19:15:43.665Z,73.85
2018-09-22T19:18:45.932Z,74.39
2018-09-22T19:21:17.868Z,75.21
2018-09-22T19:23:51.861Z,75.15
2018-09-22T19:26:24.686Z,75.08
2018-09-22T19:28:59.842Z,74.77
2018-09-22T19:31:31.937Z,74.89
2018-09-22T19:34:04.521Z,74.41
2018-09-22T19:36:37.953Z,74.48
2018-09-22T19:39:30.409Z,74.78
2018-09-22T19:42:08.499Z,74.41
2018-09-22T19:45:39.858Z,74.68
2018-09-22T19:49:11.948Z,74.94
2018-09-22T19:51:45.080Z,75.36
2018-09-22T19:54:13.457Z,75.41
2018-09-22T19:56:41.781Z,76.20
2018-09-22T19:59:10.401Z,76.59
2018-09-22T20:01:38.761Z,77.07
2018-09-22T20:04:07.129Z,76.63
2018-09-22T20:06:35.460Z,76.75
2018-09-22T20:09:05.041Z,77.15
2018-09-22T20:11:33.428Z,76.87
2018-09-22T20:14:01.842Z,77.69
2018-09-22T20:16:30.181Z,76.84
2018-09-22T20:18:58.549Z,75.99
2018-09-22T20:21:26.876Z,76.02
2018-09-22T20:23:55.273Z,76.07
2018-09-22T20:26:23.556Z,75.54
2018-09-22T20:28:51.873Z,75.07
2018-09-22T20:31:20.234Z,75.04
2018-09-22T20:33:48.594Z,74.47
2018-09-22T20:36:16.989Z,74.69
2018-09-22T20:38:45.362Z,74.75
2018-09-22T20:41:13.704Z,74.97
2018-09-22T20:43:42.069Z,75.15
2018-09-22T20:46:10.420Z,74.55
2018-09-22T20:48:38.745Z,74.33
2018-09-22T20:51:06.737Z,74.29
2018-09-22T20:53:35.408Z,73.93
2018-09-22T20:56:03.741Z,74.10
2018-09-22T20:58:32.080Z,74.37
2018-09-22T21:01:00.481Z,74.71
2018-09-22T21:03:28.812Z,74.78
2018-09-22T21:05:57.308Z,74.16
2018-09-22T21:08:26.741Z,74.49
2018-09-22T21:10:55.100Z,73.99
2018-09-22T21:13:23.413Z,74.48
2018-09-22T21:15:51.747Z,74.73
2018-09-22T21:18:20.082Z,75.35
2018-09-22T21:20:48.433Z,76.40
2018-09-22T21:23:16.790Z,76.84
2018-09-22T21:25:45.127Z,77.38
2018-09-22T21:28:13.464Z,78.13
2018-09-22T21:30:41.805Z,78.52
2018-09-22T21:33:10.121Z,78.79
2018-09-22T21:35:38.475Z,79.66
2018-09-22T21:38:07.016Z,80.76
2018-09-22T21:40:35.360Z,81.29
2018-09-22T21:43:03.678Z,81.40
2018-09-22T21:45:32.045Z,82.66
2018-09-22T21:48:00.397Z,83.89
2018-09-22T21:50:28.737Z,85.18
2018-09-22T21:52:57.065Z,84.91
2018-09-22T21:55:25.405Z,85.55
2018-09-22T21:57:53.729Z,85.22
2018-09-22T22:00:22.128Z,85.56
2018-09-22T22:02:50.450Z,84.82
2018-09-22T22:05:18.785Z,84.45
2018-09-22T22:07:47.100Z,83.89
2018-09-22T22:10:15.440Z,83.48
2018-09-22T22:12:43.844Z,83.68
2018-09-22T22:15:12.184Z,84.03
2018-09-22T22:17:40.524Z,84.12
2018-09-22T22:20:08.863Z,83.11
2018-09-22T22:22:37.200Z,82.94
2018-09-22T22:25:05.732Z,82.67
2018-09-22T22:27:34.196Z,82.65
2018-09-22T22:30:02.536Z,82.82
2018-09-22T22:32:30.848Z,83.08
2018-09-22T22:34:59.213Z,83.29
2018-09-22T22:37:27.524Z,83.62
2018-09-22T22:39:55.856Z,84.45
2018-09-22T22:42:24.194Z,84.88
2018-09-22T22:44:52.833Z,85.13
2018-09-22T22:47:21.166Z,84.61
2018-09-22T22:49:49.506Z,84.64
2018-09-22T22:52:17.853Z,84.59
2018-09-22T22:54:46.184Z,84.95
2018-09-22T22:57:14.538Z,85.48
2018-09-22T22:59:42.893Z,84.48
2018-09-22T23:02:11.233Z,84.99
2018-09-22T23:04:39.571Z,84.93
2018-09-22T23:07:07.921Z,86.04
2018-09-22T23:09:36.284Z,87.19
2018-09-22T23:12:04.988Z,87.63
2018-09-22T23:14:33.373Z,86.94
2018-09-22T23:17:01.735Z,87.85
2018-09-22T23:19:30.069Z,88.99
2018-09-22T23:21:58.388Z,89.22
2018-09-22T23:24:26.732Z,89.42
2018-09-22T23:26:56.109Z,88.54
2018-09-22T23:29:24.446Z,88.43
2018-09-22T23:31:52.797Z,89.73
2018-09-22T23:34:21.394Z,89.72
2018-09-22T23:36:49.853Z,89.37
2018-09-22T23:39:18.241Z,89.27
2018-09-22T23:41:46.566Z,89.63
2018-09-22T23:44:15.218Z,89.84
2018-09-22T23:46:43.549Z,89.93
2018-09-22T23:49:11.889Z,89.98
2018-09-22T23:51:40.240Z,90.18
2018-09-22T23:54:08.605Z,90.21
2018-09-22T23:56:36.933Z,90.21
2018-09-22T23:59:05.273Z,90.25
